Time;durP1;ratioP1;P1;durP2;ratioP2;P2;SDS_P1;SDS_P2;PMS_P1;PMS_P2;Temp;Humidity;BMP_temperature;BMP_pressure;BME280_temperature;BME280_humidity;BME280_pressure;Samples;Min_cycle;Max_cycle;Signal;HPM_P1;HPM_P2
2022/02/12 00:00:34;;;;;;;11.25;5.53;;;2.60;99.90;;;;;;5035096;28;20232;-79
2022/02/12 00:03:01;;;;;;;14.27;6.10;;;2.60;99.90;;;;;;5028403;28;20222;-83
2022/02/12 00:05:28;;;;;;;17.42;5.20;;;2.70;99.90;;;;;;5043615;28;20261;-81
2022/02/12 00:07:58;;;;;;;25.45;6.00;;;2.80;99.90;;;;;;5033767;28;20201;-81
2022/02/12 00:10:26;;;;;;;22.38;5.65;;;2.90;99.90;;;;;;5042863;28;20203;-83
2022/02/12 00:12:53;;;;;;;14.48;6.13;;;3.10;99.90;;;;;;5030245;28;20258;-82
2022/02/12 00:15:20;;;;;;;12.95;4.35;;;3.10;99.90;;;;;;5031660;28;20189;-81
2022/02/12 00:17:48;;;;;;;12.15;4.40;;;3.10;99.90;;;;;;5040662;28;20211;-83
2022/02/12 00:20:16;;;;;;;11.10;6.35;;;3.00;99.90;;;;;;5033813;28;20212;-80
2022/02/12 00:22:43;;;;;;;8.60;4.05;;;3.00;99.90;;;;;;5049212;28;20216;-81
2022/02/12 00:25:12;;;;;;;15.10;5.70;;;3.10;99.90;;;;;;5050027;28;20223;-82
2022/02/12 00:27:39;;;;;;;7.75;4.80;;;3.20;99.90;;;;;;5048287;28;20214;-80
2022/02/12 00:30:07;;;;;;;7.43;4.53;;;3.30;99.90;;;;;;5044860;28;20232;-83
2022/02/12 00:32:34;;;;;;;9.25;5.65;;;3.40;99.90;;;;;;5046706;28;20283;-80
2022/02/12 00:35:01;;;;;;;5.43;3.90;;;3.40;99.90;;;;;;5045232;28;20267;-82
2022/02/12 00:37:30;;;;;;;11.10;5.03;;;3.30;99.90;;;;;;5045017;28;20239;-81
2022/02/12 00:39:57;;;;;;;11.35;4.70;;;3.20;99.90;;;;;;5038723;28;20227;-81
2022/02/12 00:42:25;;;;;;;14.80;5.57;;;3.30;99.90;;;;;;5043573;28;20275;-80
2022/02/12 00:44:52;;;;;;;12.30;5.15;;;3.30;99.90;;;;;;5045976;28;20283;-80
2022/02/12 00:47:19;;;;;;;13.80;4.60;;;3.30;99.90;;;;;;5047484;28;20275;-82
2022/02/12 00:49:46;;;;;;;14.77;4.60;;;3.30;99.90;;;;;;5048596;28;20258;-82
2022/02/12 00:52:13;;;;;;;14.82;5.07;;;3.40;99.90;;;;;;5051760;28;20221;-80
2022/02/12 00:54:40;;;;;;;21.55;4.82;;;3.40;99.90;;;;;;5051598;28;20242;-80
2022/02/12 00:57:09;;;;;;;14.10;4.75;;;3.50;99.90;;;;;;5054303;28;20266;-82
2022/02/12 00:59:37;;;;;;;11.50;5.30;;;3.40;99.90;;;;;;5056159;28;20224;-82
2022/02/12 01:02:04;;;;;;;9.20;4.47;;;3.60;99.90;;;;;;5051235;28;20220;-81
2022/02/12 01:04:32;;;;;;;11.05;4.90;;;3.50;99.90;;;;;;5052852;28;20211;-81
2022/02/12 01:06:59;;;;;;;13.07;5.13;;;3.40;99.90;;;;;;5052697;28;20208;-81
2022/02/12 01:09:25;;;;;;;13.43;4.55;;;3.50;99.90;;;;;;5052222;28;20235;-81
2022/02/12 01:11:52;;;;;;;14.85;4.50;;;3.50;99.90;;;;;;5050292;28;20335;-80
2022/02/12 01:14:19;;;;;;;13.27;4.70;;;3.50;99.90;;;;;;5047070;28;20227;-80
2022/02/12 01:16:48;;;;;;;8.40;4.97;;;3.40;99.90;;;;;;5041208;28;20268;-82
2022/02/12 01:19:15;;;;;;;7.65;4.38;;;3.50;99.90;;;;;;5046328;28;20240;-82
2022/02/12 01:21:41;;;;;;;6.82;4.45;;;3.50;99.90;;;;;;5046618;28;20263;-82
2022/02/12 01:24:08;;;;;;;13.10;4.82;;;3.50;99.90;;;;;;5045242;28;20200;-81
2022/02/12 01:26:35;;;;;;;10.60;4.88;;;3.60;99.90;;;;;;5047125;28;20227;-82
2022/02/12 01:29:02;;;;;;;14.02;5.38;;;3.60;99.90;;;;;;5046610;28;20256;-80
2022/02/12 01:31:29;;;;;;;5.80;4.38;;;3.70;99.90;;;;;;5046405;28;20239;-81
2022/02/12 01:33:57;;;;;;;10.38;4.13;;;3.50;99.90;;;;;;5033435;28;20638;-80
2022/02/12 01:36:24;;;;;;;9.13;3.90;;;3.50;99.90;;;;;;5044030;28;20291;-81
2022/02/12 01:38:51;;;;;;;12.88;5.22;;;3.50;99.90;;;;;;5045737;28;20216;-79
2022/02/12 01:41:18;;;;;;;10.02;4.93;;;3.60;99.90;;;;;;5046463;28;20213;-82
2022/02/12 01:43:45;;;;;;;13.35;4.93;;;3.60;99.90;;;;;;5047543;28;20673;-81
2022/02/12 01:46:11;;;;;;;14.98;4.03;;;3.60;99.90;;;;;;5045053;28;20267;-82
2022/02/12 01:48:42;;;;;;;8.10;3.88;;;3.60;99.90;;;;;;5045669;28;20299;-82
2022/02/12 01:51:11;;;;;;;22.20;5.13;;;3.60;99.90;;;;;;5045176;28;20614;-81
2022/02/12 01:53:38;;;;;;;12.45;4.70;;;3.50;99.90;;;;;;5044855;28;20230;-82
2022/02/12 01:56:07;;;;;;;11.80;4.75;;;3.40;99.90;;;;;;5045753;28;20212;-81
2022/02/12 01:58:34;;;;;;;17.00;5.20;;;3.60;99.90;;;;;;5046887;28;20338;-82
2022/02/12 02:01:01;;;;;;;13.05;5.47;;;3.40;99.90;;;;;;5042558;28;20219;-82
2022/02/12 02:03:28;;;;;;;14.82;5.30;;;3.30;99.90;;;;;;5042781;28;20259;-81
2022/02/12 02:05:55;;;;;;;9.05;5.40;;;3.30;99.90;;;;;;5046656;28;20201;-80
2022/02/12 02:08:24;;;;;;;13.30;5.78;;;3.20;99.90;;;;;;5045210;28;20224;-78
2022/02/12 02:10:53;;;;;;;12.68;5.63;;;3.10;99.90;;;;;;5044372;28;20201;-79
2022/02/12 02:13:28;;;;;;;12.30;6.03;;;3.10;99.90;;;;;;5044529;28;20226;-79
2022/02/12 02:15:55;;;;;;;9.23;4.00;;;3.10;99.90;;;;;;5044197;28;20212;-82
2022/02/12 02:18:22;;;;;;;9.30;6.30;;;3.10;99.90;;;;;;5043539;28;20219;-83
2022/02/12 02:20:49;;;;;;;6.95;4.78;;;3.10;99.90;;;;;;5043921;28;20349;-79
2022/02/12 02:23:18;;;;;;;12.50;4.28;;;3.10;99.90;;;;;;5043891;28;20212;-80
2022/02/12 02:25:46;;;;;;;12.80;5.95;;;3.10;99.90;;;;;;5034521;28;20200;-80
2022/02/12 02:28:13;;;;;;;9.48;4.80;;;3.10;99.90;;;;;;5042935;28;20588;-80
2022/02/12 02:30:42;;;;;;;15.55;5.53;;;3.10;99.90;;;;;;5042201;28;20203;-80
2022/02/12 02:33:08;;;;;;;6.15;4.53;;;3.10;99.90;;;;;;5039512;28;20220;-79
2022/02/12 02:35:35;;;;;;;12.55;5.18;;;3.00;99.90;;;;;;5038867;28;20230;-81
2022/02/12 02:38:07;;;;;;;12.85;5.03;;;3.00;99.90;;;;;;5043448;28;20235;-81
2022/02/12 02:40:36;;;;;;;5.95;4.85;;;3.00;99.90;;;;;;5035871;28;20219;-82
2022/02/12 02:43:03;;;;;;;11.85;4.72;;;2.90;99.90;;;;;;5044717;28;20291;-80
2022/02/12 02:45:30;;;;;;;17.65;5.45;;;2.80;99.90;;;;;;5039324;28;20239;-81
2022/02/12 02:47:59;;;;;;;5.28;4.25;;;2.80;99.90;;;;;;5050482;28;20219;-81
2022/02/12 02:56:02;;;;;;;13.55;4.72;;;2.60;99.90;;;;;;5045070;28;20296;-82
2022/02/12 02:58:35;;;;;;;8.98;5.30;;;2.60;99.90;;;;;;5045245;28;20230;-81
2022/02/12 03:01:03;;;;;;;10.80;5.28;;;2.60;99.90;;;;;;5044615;28;20353;-81
2022/02/12 03:03:31;;;;;;;8.77;6.03;;;2.60;99.90;;;;;;5043292;28;20613;-80
2022/02/12 03:05:58;;;;;;;7.40;4.90;;;2.50;99.90;;;;;;5039918;28;20204;-82
2022/02/12 03:08:25;;;;;;;9.38;5.18;;;2.50;99.90;;;;;;5043801;28;20228;-80
2022/02/12 03:10:52;;;;;;;20.00;4.90;;;2.40;99.90;;;;;;5043646;28;20212;-81
2022/02/12 03:13:20;;;;;;;6.80;4.53;;;2.40;99.90;;;;;;5044092;28;20224;-82
2022/02/12 03:15:48;;;;;;;10.65;5.20;;;2.40;99.90;;;;;;5043495;28;20287;-81
2022/02/12 03:18:14;;;;;;;7.40;4.57;;;2.30;99.90;;;;;;5040389;28;20251;-82
2022/02/12 03:20:41;;;;;;;9.50;3.53;;;2.30;99.90;;;;;;5044217;28;20204;-82
2022/02/12 03:23:09;;;;;;;11.45;6.47;;;2.30;99.90;;;;;;5029270;28;20279;-80
2022/02/12 03:25:37;;;;;;;14.23;4.57;;;2.30;99.90;;;;;;5041773;28;20203;-81
2022/02/12 03:28:06;;;;;;;7.90;5.25;;;2.30;99.90;;;;;;5043747;28;20651;-81
2022/02/12 03:30:36;;;;;;;9.95;4.55;;;2.20;99.90;;;;;;5043586;28;20263;-80
2022/02/12 03:33:04;;;;;;;10.73;4.03;;;2.30;99.90;;;;;;5043330;28;20248;-81
2022/02/12 03:35:31;;;;;;;9.55;4.22;;;2.20;99.90;;;;;;5044163;28;20231;-80
2022/02/12 03:38:08;;;;;;;7.65;4.30;;;2.10;99.90;;;;;;5043424;28;20292;-80
2022/02/12 03:40:36;;;;;;;11.35;4.47;;;2.20;99.90;;;;;;5035407;28;20854;-82
2022/02/12 03:43:04;;;;;;;13.68;5.80;;;2.10;99.90;;;;;;5033524;28;20698;-81
2022/02/12 03:45:31;;;;;;;12.90;5.03;;;2.20;99.90;;;;;;5042720;28;20212;-81
2022/02/12 03:48:00;;;;;;;25.17;5.25;;;2.00;99.90;;;;;;5046094;28;20204;-81
2022/02/12 03:50:27;;;;;;;8.80;3.90;;;1.80;99.90;;;;;;5048931;28;20204;-79
2022/02/12 03:52:54;;;;;;;16.45;5.75;;;1.80;99.90;;;;;;5049286;28;20260;-80
2022/02/12 03:55:21;;;;;;;9.85;5.82;;;1.70;99.90;;;;;;5034735;28;20197;-80
2022/02/12 03:57:48;;;;;;;17.58;4.95;;;1.70;99.90;;;;;;5045131;28;20208;-79
2022/02/12 04:00:16;;;;;;;16.45;4.65;;;1.70;99.90;;;;;;5040726;28;20225;-80
2022/02/12 04:02:44;;;;;;;10.02;4.43;;;1.60;99.90;;;;;;5025881;28;20250;-79
2022/02/12 04:05:14;;;;;;;15.68;4.30;;;1.60;99.90;;;;;;5032014;28;20204;-80
2022/02/12 04:07:42;;;;;;;13.18;4.90;;;1.40;99.90;;;;;;5040498;28;20205;-81
2022/02/12 04:10:11;;;;;;;6.40;3.33;;;1.60;99.90;;;;;;5024043;28;20206;-80
2022/02/12 04:12:38;;;;;;;29.42;6.53;;;1.60;99.90;;;;;;5040817;28;20201;-82
2022/02/12 04:15:06;;;;;;;8.27;3.65;;;1.70;99.90;;;;;;5040927;28;20295;-81
2022/02/12 04:17:34;;;;;;;23.52;3.95;;;1.80;99.90;;;;;;5045118;28;20314;-81
2022/02/12 04:20:02;;;;;;;10.43;3.80;;;1.70;99.90;;;;;;5047303;28;20246;-81
2022/02/12 04:22:32;;;;;;;6.10;3.83;;;1.70;99.90;;;;;;5047525;28;20258;-81
2022/02/12 04:24:59;;;;;;;9.30;3.97;;;1.70;99.90;;;;;;5047192;28;20269;-81
2022/02/12 04:27:26;;;;;;;14.95;4.35;;;1.70;99.90;;;;;;5047316;28;20310;-81
2022/02/12 04:29:54;;;;;;;10.27;3.85;;;1.70;99.90;;;;;;5047268;28;20255;-82
2022/02/12 04:32:21;;;;;;;8.10;6.65;;;1.70;99.90;;;;;;5047892;28;20196;-81
2022/02/12 04:34:48;;;;;;;10.85;3.85;;;1.70;99.90;;;;;;5046408;28;20255;-81
2022/02/12 04:37:15;;;;;;;17.50;4.95;;;1.70;99.90;;;;;;5044707;28;20200;-80
2022/02/12 04:39:44;;;;;;;13.25;3.80;;;1.90;99.90;;;;;;5044764;28;20311;-81
2022/02/12 04:42:11;;;;;;;10.00;4.10;;;1.70;99.90;;;;;;5050062;28;20228;-82
2022/02/12 04:44:39;;;;;;;14.65;4.47;;;1.70;99.90;;;;;;5056523;28;20285;-81
2022/02/12 04:47:06;;;;;;;10.30;4.13;;;1.70;99.90;;;;;;5056671;28;20189;-80
2022/02/12 04:49:33;;;;;;;9.43;4.60;;;1.70;99.90;;;;;;5033952;28;20259;-80
2022/02/12 04:52:00;;;;;;;7.97;3.88;;;1.80;99.90;;;;;;5040831;28;20196;-80
2022/02/12 04:54:26;;;;;;;16.38;4.75;;;1.70;99.90;;;;;;5040622;28;20236;-78
2022/02/12 04:56:55;;;;;;;10.27;3.85;;;1.70;99.90;;;;;;5040750;28;20193;-81
2022/02/12 04:59:21;;;;;;;15.00;4.45;;;1.80;99.90;;;;;;5051705;28;20228;-80
2022/02/12 05:01:50;;;;;;;14.38;5.75;;;1.80;99.90;;;;;;5052002;28;20207;-80
2022/02/12 05:04:17;;;;;;;13.23;5.13;;;1.70;99.90;;;;;;5055716;28;20176;-80
2022/02/12 05:06:44;;;;;;;16.70;4.65;;;1.70;99.90;;;;;;5059881;28;20201;-80
2022/02/12 05:09:13;;;;;;;10.35;4.90;;;1.70;99.90;;;;;;5053988;28;20269;-79
2022/02/12 05:11:41;;;;;;;18.83;6.28;;;1.70;99.90;;;;;;5043976;28;20203;-79
2022/02/12 05:14:09;;;;;;;12.82;4.07;;;1.60;99.90;;;;;;5042252;28;20251;-80
2022/02/12 05:16:37;;;;;;;7.90;3.42;;;1.60;99.90;;;;;;5042287;28;20302;-81
2022/02/12 05:19:04;;;;;;;7.72;4.32;;;1.60;99.90;;;;;;5049305;28;20240;-81
2022/02/12 05:21:31;;;;;;;8.77;4.43;;;1.60;99.90;;;;;;5047728;28;20208;-79
2022/02/12 05:23:58;;;;;;;10.20;4.32;;;1.60;99.90;;;;;;5051972;28;20235;-80
2022/02/12 05:26:26;;;;;;;6.70;3.70;;;1.50;99.90;;;;;;5051815;28;20208;-81
2022/02/12 05:28:52;;;;;;;9.48;3.60;;;1.50;99.90;;;;;;5052705;28;20561;-81
2022/02/12 05:31:21;;;;;;;11.82;4.32;;;1.60;99.90;;;;;;5053303;28;20208;-80
2022/02/12 05:33:47;;;;;;;18.85;4.97;;;1.50;99.90;;;;;;5053171;28;20228;-81
2022/02/12 05:36:15;;;;;;;12.65;3.95;;;1.50;99.90;;;;;;5049717;28;20264;-80
2022/02/12 05:38:43;;;;;;;14.07;4.68;;;1.60;99.90;;;;;;5042872;28;20256;-81
2022/02/12 05:41:11;;;;;;;15.20;4.40;;;1.50;99.90;;;;;;5045556;28;20264;-81
2022/02/12 05:43:38;;;;;;;24.65;5.28;;;1.50;99.90;;;;;;5029329;28;20197;-81
2022/02/12 05:46:06;;;;;;;9.38;5.05;;;1.50;99.90;;;;;;5044988;28;20218;-79
2022/02/12 05:48:35;;;;;;;12.07;5.72;;;1.40;99.90;;;;;;5049139;28;20371;-80
2022/02/12 05:51:02;;;;;;;11.77;5.22;;;1.40;99.90;;;;;;5048296;28;20217;-81
2022/02/12 05:53:30;;;;;;;14.60;5.20;;;1.30;99.90;;;;;;5044666;28;20308;-81
2022/02/12 05:55:57;;;;;;;12.73;4.32;;;1.40;99.90;;;;;;5044043;28;20322;-81
2022/02/12 05:58:24;;;;;;;12.68;6.30;;;1.40;99.90;;;;;;5042959;28;20594;-81
2022/02/12 06:00:51;;;;;;;12.93;5.10;;;1.30;99.90;;;;;;5043023;28;20208;-80
2022/02/12 06:03:18;;;;;;;12.32;4.90;;;1.30;99.90;;;;;;5043003;28;20288;-81
2022/02/12 06:05:47;;;;;;;14.55;5.20;;;1.30;99.90;;;;;;5042638;28;20232;-82
2022/02/12 06:08:14;;;;;;;12.98;6.40;;;1.20;99.90;;;;;;5041987;28;20229;-80
2022/02/12 06:10:41;;;;;;;12.77;6.95;;;1.30;99.90;;;;;;5042185;28;20231;-81
2022/02/12 06:13:08;;;;;;;16.58;5.30;;;1.20;99.90;;;;;;5043573;28;20227;-80
2022/02/12 06:15:36;;;;;;;18.40;6.55;;;1.30;99.90;;;;;;5043155;28;20298;-81
2022/02/12 06:18:04;;;;;;;12.95;6.93;;;1.20;99.90;;;;;;5045799;28;20575;-81
2022/02/12 06:20:31;;;;;;;16.90;5.72;;;1.30;99.90;;;;;;5043153;28;20227;-81
2022/02/12 06:22:59;;;;;;;11.13;5.57;;;1.30;99.90;;;;;;5043638;28;20291;-82
2022/02/12 06:25:26;;;;;;;9.05;5.35;;;1.30;99.90;;;;;;5043665;28;20260;-82
2022/02/12 06:27:53;;;;;;;15.82;6.15;;;1.30;99.90;;;;;;5043878;28;20204;-82
2022/02/12 06:30:20;;;;;;;17.65;6.20;;;1.30;99.90;;;;;;5043704;28;20209;-81
2022/02/12 06:32:47;;;;;;;14.77;6.38;;;1.40;99.90;;;;;;5043518;28;20299;-81
2022/02/12 06:35:14;;;;;;;8.40;5.57;;;1.40;99.90;;;;;;5047670;28;20769;-80
2022/02/12 06:37:41;;;;;;;11.05;6.65;;;1.30;99.90;;;;;;5055771;28;20240;-81
2022/02/12 06:40:11;;;;;;;16.60;5.97;;;1.40;99.90;;;;;;5052883;28;20782;-81
2022/02/12 06:42:38;;;;;;;12.77;5.90;;;1.30;99.90;;;;;;5056044;28;20208;-80
2022/02/12 06:45:05;;;;;;;8.93;5.60;;;1.40;99.90;;;;;;5052065;28;20201;-81
2022/02/12 06:47:35;;;;;;;10.98;5.00;;;1.20;99.90;;;;;;5045694;28;20200;-80
2022/02/12 06:50:02;;;;;;;14.10;4.78;;;1.30;99.90;;;;;;5031938;28;20252;-80
2022/02/12 06:52:29;;;;;;;14.95;5.43;;;1.30;99.90;;;;;;5047224;28;20643;-80
2022/02/12 06:54:56;;;;;;;7.35;4.60;;;1.30;99.90;;;;;;5047961;28;20303;-80
2022/02/12 06:57:24;;;;;;;16.95;5.80;;;1.40;99.90;;;;;;5046100;28;20219;-81
2022/02/12 06:59:51;;;;;;;15.98;5.40;;;1.70;99.90;;;;;;5042790;28;20224;-81
2022/02/12 07:02:18;;;;;;;10.35;5.80;;;1.80;99.90;;;;;;5039624;28;20204;-79
2022/02/12 07:04:46;;;;;;;8.52;5.50;;;1.90;99.90;;;;;;5040058;28;20662;-81
2022/02/12 07:07:12;;;;;;;9.30;5.03;;;1.90;99.90;;;;;;5045833;28;20235;-80
2022/02/12 07:09:39;;;;;;;9.50;6.32;;;1.90;99.90;;;;;;5045065;28;20220;-81
2022/02/12 07:12:07;;;;;;;10.68;5.97;;;1.90;99.90;;;;;;5046355;28;20228;-81
2022/02/12 07:14:37;;;;;;;12.18;5.18;;;1.90;99.90;;;;;;5044263;28;20228;-81
2022/02/12 07:17:04;;;;;;;14.93;5.32;;;1.90;99.90;;;;;;5043071;28;20192;-82
2022/02/12 07:19:32;;;;;;;12.70;4.40;;;1.90;99.90;;;;;;5042684;28;20890;-80
2022/02/12 07:21:59;;;;;;;8.82;6.10;;;2.00;99.90;;;;;;5043690;28;20615;-81
2022/02/12 07:24:26;;;;;;;13.70;6.00;;;2.10;99.90;;;;;;5043137;28;20264;-81
2022/02/12 07:26:53;;;;;;;12.32;6.63;;;2.30;99.90;;;;;;5043504;28;20267;-82
2022/02/12 07:29:20;;;;;;;15.13;6.35;;;2.60;99.90;;;;;;5044213;28;20258;-80
2022/02/12 07:31:48;;;;;;;10.98;5.70;;;3.00;99.90;;;;;;5042726;28;20287;-80
2022/02/12 07:34:16;;;;;;;13.00;5.63;;;3.40;99.90;;;;;;5040646;28;20241;-81
2022/02/12 07:36:43;;;;;;;15.60;6.68;;;3.80;99.90;;;;;;5042588;28;20218;-79
2022/02/12 07:39:10;;;;;;;19.30;6.60;;;4.20;99.90;;;;;;5043447;28;20243;-79
2022/02/12 07:41:37;;;;;;;10.68;5.32;;;4.30;99.90;;;;;;5045323;28;20627;-81
2022/02/12 07:44:05;;;;;;;7.10;3.95;;;4.60;99.90;;;;;;5047458;28;20220;-82
2022/02/12 07:46:32;;;;;;;10.43;5.38;;;5.10;99.90;;;;;;5042197;28;20204;-82
2022/02/12 07:49:00;;;;;;;8.30;5.10;;;5.70;99.90;;;;;;5044775;28;20303;-79
2022/02/12 07:51:27;;;;;;;11.32;5.43;;;6.20;99.90;;;;;;5040224;28;20242;-80
2022/02/12 07:53:54;;;;;;;17.48;5.38;;;6.20;99.90;;;;;;5038345;28;20247;-82
2022/02/12 07:56:21;;;;;;;13.15;5.10;;;6.40;99.90;;;;;;5047506;28;20285;-79
2022/02/12 07:58:48;;;;;;;7.63;5.50;;;7.00;99.90;;;;;;5048728;28;20259;-81
2022/02/12 08:01:15;;;;;;;11.38;5.03;;;7.60;99.90;;;;;;5047568;28;20653;-82
2022/02/12 08:03:42;;;;;;;10.10;5.35;;;8.10;99.90;;;;;;5047940;28;20212;-80
2022/02/12 08:07:27;;;;;;;11.93;5.80;;;8.40;99.60;;;;;;5049657;28;20202;-81
2022/02/12 08:08:57;;;;;;;15.65;5.28;;;8.70;98.30;;;;;;5048825;28;20217;-83
2022/02/12 08:11:26;;;;;;;6.53;4.68;;;8.90;97.50;;;;;;5045862;28;20237;-80
2022/02/12 08:13:53;;;;;;;14.07;5.85;;;9.10;96.70;;;;;;5040981;28;20209;-78
2022/02/12 08:16:20;;;;;;;9.27;5.80;;;9.30;95.50;;;;;;5044022;28;20212;-78
2022/02/12 08:18:47;;;;;;;9.95;5.00;;;9.30;95.00;;;;;;5045865;28;20293;-80
2022/02/12 08:21:15;;;;;;;9.63;4.82;;;8.90;95.00;;;;;;5044269;28;20296;-81
2022/02/12 08:23:42;;;;;;;10.10;5.72;;;9.20;95.10;;;;;;5049457;28;20207;-81
2022/02/12 08:26:09;;;;;;;9.02;5.35;;;9.20;94.40;;;;;;5043171;28;20291;-81
2022/02/12 08:28:37;;;;;;;10.90;5.35;;;9.80;94.50;;;;;;5046560;28;20224;-83
2022/02/12 08:31:04;;;;;;;8.63;4.97;;;10.00;93.60;;;;;;5048775;28;20193;-80
2022/02/12 08:33:31;;;;;;;8.70;6.07;;;10.20;92.10;;;;;;5046963;28;20228;-82
2022/02/12 08:35:57;;;;;;;9.38;6.38;;;10.20;91.50;;;;;;5052851;28;20242;-79
2022/02/12 08:38:26;;;;;;;7.15;5.10;;;9.70;92.50;;;;;;5051894;28;20307;-80
2022/02/12 08:40:53;;;;;;;14.00;4.88;;;9.40;93.80;;;;;;5040624;28;20352;-79
2022/02/12 08:43:20;;;;;;;11.43;5.47;;;9.50;93.60;;;;;;5051700;28;20244;-83
2022/02/12 08:45:47;;;;;;;11.10;5.90;;;9.80;93.00;;;;;;5046457;28;20229;-83
2022/02/12 08:48:14;;;;;;;10.82;5.90;;;9.80;92.40;;;;;;5048608;28;20248;-81
2022/02/12 08:50:41;;;;;;;12.05;4.72;;;9.60;92.00;;;;;;5043468;28;20209;-80
2022/02/12 08:53:08;;;;;;;12.98;6.03;;;9.30;92.90;;;;;;5030643;28;20201;-79
2022/02/12 08:55:36;;;;;;;10.77;4.80;;;8.80;93.30;;;;;;5043474;28;20223;-78
2022/02/12 08:58:03;;;;;;;10.63;5.30;;;8.30;97.20;;;;;;5047566;28;20263;-81
2022/02/12 09:00:30;;;;;;;10.13;5.72;;;8.50;97.70;;;;;;5039975;28;20213;-79
2022/02/12 09:02:57;;;;;;;10.18;5.50;;;8.50;95.80;;;;;;5045400;28;20239;-80
2022/02/12 09:05:24;;;;;;;10.25;5.63;;;8.30;95.40;;;;;;5046237;28;20676;-77
2022/02/12 09:07:51;;;;;;;9.82;6.10;;;8.60;95.60;;;;;;5044797;28;20515;-80
2022/02/12 09:10:18;;;;;;;11.73;5.00;;;9.00;95.60;;;;;;5042601;28;20658;-79
2022/02/12 09:12:46;;;;;;;10.35;5.53;;;9.10;95.20;;;;;;5037818;28;20215;-78
2022/02/12 09:15:13;;;;;;;9.70;5.85;;;8.90;93.90;;;;;;5044563;28;20662;-78
2022/02/12 09:17:40;;;;;;;8.70;5.00;;;9.10;94.60;;;;;;5046357;28;20241;-79
2022/02/12 09:20:07;;;;;;;11.10;5.35;;;9.60;93.10;;;;;;5045124;28;20818;-78
2022/02/12 09:22:34;;;;;;;9.93;4.63;;;9.60;91.70;;;;;;5046825;28;20296;-78
2022/02/12 09:25:01;;;;;;;9.07;4.80;;;10.40;91.00;;;;;;5048035;28;20215;-77
2022/02/12 09:27:28;;;;;;;18.00;6.88;;;11.00;88.90;;;;;;5046471;28;20214;-78
2022/02/12 09:29:59;;;;;;;12.38;4.00;;;11.20;90.60;;;;;;5045496;28;20239;-79
2022/02/12 09:32:26;;;;;;;12.07;4.80;;;11.30;88.20;;;;;;5039786;28;20196;-78
2022/02/12 09:34:54;;;;;;;10.63;5.40;;;11.40;86.90;;;;;;5045648;28;20227;-80
2022/02/12 09:37:21;;;;;;;7.60;4.68;;;11.60;85.50;;;;;;5047031;28;20617;-79
2022/02/12 09:39:48;;;;;;;8.50;4.68;;;11.80;84.10;;;;;;5044635;28;20358;-77
2022/02/12 09:42:15;;;;;;;10.23;4.80;;;12.50;82.30;;;;;;5041273;28;20200;-77
2022/02/12 09:44:42;;;;;;;7.65;4.05;;;13.10;79.60;;;;;;5038218;28;20224;-79
2022/02/12 09:47:34;;;;;;;7.13;4.40;;;13.50;77.90;;;;;;5039799;28;20279;-78
2022/02/12 09:50:00;;;;;;;8.73;4.15;;;13.90;76.00;;;;;;5043897;28;20312;-80
2022/02/12 09:52:31;;;;;;;13.38;5.13;;;13.60;75.50;;;;;;5047070;28;20234;-80
2022/02/12 09:54:59;;;;;;;9.38;4.15;;;13.90;74.80;;;;;;5038871;28;20226;-79
2022/02/12 09:57:26;;;;;;;10.50;4.15;;;13.70;74.10;;;;;;5045049;28;20273;-78
2022/02/12 10:00:00;;;;;;;9.10;5.28;;;13.80;73.90;;;;;;5035924;28;20226;-79
2022/02/12 10:02:29;;;;;;;6.05;4.00;;;13.40;74.10;;;;;;5042599;28;20280;-80
2022/02/12 10:05:19;;;;;;;9.27;6.57;;;12.90;73.40;;;;;;5042053;28;20264;-80
2022/02/12 10:07:46;;;;;;;10.40;4.15;;;12.50;74.30;;;;;;5047579;28;20204;-79
2022/02/12 10:10:14;;;;;;;15.50;5.70;;;12.50;74.20;;;;;;5050397;28;20200;-79
2022/02/12 10:12:42;;;;;;;11.40;4.88;;;12.60;76.00;;;;;;5056286;28;20208;-78
2022/02/12 10:15:13;;;;;;;12.18;4.30;;;12.20;75.90;;;;;;5057195;28;20247;-78
2022/02/12 10:17:53;;;;;;;11.40;5.07;;;12.40;76.20;;;;;;5057249;28;20188;-79
2022/02/12 10:20:25;;;;;;;9.68;5.80;;;11.90;75.50;;;;;;5061105;28;20187;-78
2022/02/12 10:22:53;;;;;;;10.07;4.93;;;11.60;76.90;;;;;;5053268;28;20222;-77
2022/02/12 10:25:20;;;;;;;8.73;4.93;;;11.90;79.40;;;;;;5045101;28;20203;-78
2022/02/12 10:27:49;;;;;;;11.88;4.93;;;11.60;77.70;;;;;;5058600;28;20186;-78
2022/02/12 10:30:16;;;;;;;10.13;4.80;;;11.30;78.50;;;;;;5058490;28;20203;-78
2022/02/12 10:32:43;;;;;;;6.45;4.65;;;11.40;78.90;;;;;;5058095;28;20230;-78
2022/02/12 10:35:12;;;;;;;13.40;5.20;;;11.40;78.00;;;;;;5044203;28;20279;-77
2022/02/12 10:37:43;;;;;;;9.40;4.60;;;10.90;77.30;;;;;;5038836;28;20261;-78
2022/02/12 10:40:11;;;;;;;14.70;4.82;;;10.50;79.80;;;;;;5074677;28;20208;-78
2022/02/12 10:42:44;;;;;;;7.05;4.03;;;10.40;80.90;;;;;;5076880;28;20199;-76
2022/02/12 10:45:16;;;;;;;4.80;4.38;;;10.60;81.20;;;;;;5044125;28;20193;-78
2022/02/12 10:47:44;;;;;;;12.55;4.78;;;10.60;81.50;;;;;;5057356;28;20188;-78
2022/02/12 10:50:12;;;;;;;16.17;5.30;;;10.70;80.10;;;;;;5041173;28;20243;-80
2022/02/12 10:52:41;;;;;;;10.38;4.75;;;10.90;81.20;;;;;;5043672;28;20219;-80
2022/02/12 10:55:29;;;;;;;10.15;4.85;;;10.60;79.60;;;;;;5045215;28;20207;-80
2022/02/12 10:57:57;;;;;;;14.10;5.15;;;10.30;81.00;;;;;;5035989;28;20223;-79
2022/02/12 11:00:26;;;;;;;9.20;4.10;;;9.70;83.00;;;;;;5048417;28;20189;-80
2022/02/12 11:02:57;;;;;;;12.88;5.40;;;9.20;81.40;;;;;;5042258;28;20260;-80
2022/02/12 11:05:28;;;;;;;8.15;3.50;;;9.00;83.10;;;;;;5057870;28;20189;-78
2022/02/12 11:07:56;;;;;;;7.68;4.00;;;9.00;83.10;;;;;;5058413;28;20188;-80
2022/02/12 11:13:06;;;;;;;7.90;3.20;;;8.90;83.10;;;;;;5057692;28;20185;-78
2022/02/12 11:15:37;;;;;;;4.53;3.45;;;8.60;83.80;;;;;;5057878;28;20208;-79
2022/02/12 11:18:10;;;;;;;10.77;4.15;;;8.30;84.10;;;;;;5056290;28;20206;-80
2022/02/12 11:20:42;;;;;;;9.05;4.47;;;8.00;85.80;;;;;;5054289;28;20208;-79
2022/02/12 11:23:34;;;;;;;10.07;3.83;;;8.10;87.30;;;;;;5050415;28;20192;-77
2022/02/12 11:26:42;;;;;;;10.85;4.18;;;7.80;87.30;;;;;;5050023;28;20207;-79
2022/02/12 11:30:10;;;;;;;9.15;4.20;;;7.80;88.20;;;;;;4963890;29;20223;-80
2022/02/12 11:32:47;;;;;;;10.20;3.60;;;7.90;89.70;;;;;;4993378;28;20198;-79
2022/02/12 11:35:27;;;;;;;8.38;3.90;;;7.90;88.30;;;;;;5053666;28;20204;-79
2022/02/12 11:37:59;;;;;;;10.38;3.65;;;8.10;89.20;;;;;;5050720;28;20191;-79
2022/02/12 11:40:30;;;;;;;14.43;4.57;;;7.80;88.70;;;;;;5045056;28;20215;-77
2022/02/12 11:43:11;;;;;;;9.00;3.28;;;8.00;89.90;;;;;;5057492;28;20207;-77
2022/02/12 11:45:39;;;;;;;25.80;3.78;;;8.00;89.00;;;;;;5057567;28;20188;-76
2022/02/12 11:48:18;;;;;;;10.30;3.72;;;7.70;89.00;;;;;;5051958;28;20218;-76
2022/02/12 11:50:51;;;;;;;7.22;3.65;;;7.50;89.50;;;;;;5056282;28;20183;-76
2022/02/12 11:53:46;;;;;;;8.80;4.07;;;7.70;90.10;;;;;;5056252;28;20218;-76
2022/02/12 11:56:46;;;;;;;12.07;5.32;;;7.90;90.20;;;;;;5056148;28;20222;-77
2022/02/12 11:59:13;;;;;;;10.40;4.15;;;7.70;90.40;;;;;;5055334;28;20249;-78
2022/02/12 12:01:48;;;;;;;13.40;4.85;;;7.50;90.00;;;;;;5055763;28;20231;-78
2022/02/12 12:04:18;;;;;;;12.05;3.30;;;7.40;90.50;;;;;;5056341;28;20221;-75
2022/02/12 12:07:14;;;;;;;8.90;3.30;;;7.50;90.80;;;;;;5056778;28;20274;-78
2022/02/12 12:10:15;;;;;;;11.65;3.53;;;7.40;91.30;;;;;;5055846;28;20207;-76
2022/02/12 12:12:43;;;;;;;6.15;3.10;;;7.10;90.60;;;;;;5056025;28;20202;-76
2022/02/12 12:15:21;;;;;;;10.60;4.22;;;7.10;91.10;;;;;;5054710;28;20192;-79
2022/02/12 12:18:02;;;;;;;15.85;8.07;;;7.30;90.50;;;;;;5046252;28;20206;-78
2022/02/12 12:20:38;;;;;;;15.50;4.30;;;7.30;91.30;;;;;;5049958;28;20219;-81
2022/02/12 12:23:08;;;;;;;11.63;3.65;;;7.40;91.00;;;;;;5043447;28;20195;-82
2022/02/12 12:25:58;;;;;;;9.43;3.22;;;7.30;90.60;;;;;;5036323;28;20257;-83
2022/02/12 12:28:30;;;;;;;8.63;3.60;;;7.20;90.70;;;;;;5043420;28;20218;-81
2022/02/12 12:30:57;;;;;;;7.35;3.63;;;7.10;90.70;;;;;;5048523;28;20202;-79
2022/02/12 12:33:26;;;;;;;4.60;3.20;;;7.20;91.10;;;;;;5050200;28;20207;-77
2022/02/12 12:35:53;;;;;;;9.10;3.00;;;7.10;90.30;;;;;;5048683;28;20273;-81
2022/02/12 12:38:20;;;;;;;8.38;3.70;;;7.10;90.40;;;;;;5048103;28;20230;-82
2022/02/12 12:40:48;;;;;;;15.60;3.60;;;7.10;90.30;;;;;;5049779;28;20223;-82
2022/02/12 12:43:17;;;;;;;11.40;4.32;;;7.30;90.30;;;;;;5042586;28;20212;-81
2022/02/12 12:45:46;;;;;;;14.20;3.58;;;7.10;90.70;;;;;;5045325;28;20211;-83
2022/02/12 12:48:13;;;;;;;9.88;4.22;;;7.10;90.60;;;;;;5034762;28;20221;-81
2022/02/12 12:50:42;;;;;;;6.40;3.25;;;7.10;91.00;;;;;;5039400;28;20223;-80
2022/02/12 12:53:11;;;;;;;10.73;3.60;;;7.10;90.80;;;;;;5045417;28;20199;-81
2022/02/12 12:55:39;;;;;;;9.60;3.72;;;7.00;91.40;;;;;;5044998;28;20211;-79
2022/02/12 12:58:13;;;;;;;11.43;3.70;;;7.10;91.60;;;;;;5046741;28;20239;-81
2022/02/12 13:00:41;;;;;;;15.10;4.50;;;7.10;91.50;;;;;;5047889;28;20292;-79
2022/02/12 13:03:08;;;;;;;7.28;4.22;;;7.10;91.70;;;;;;5041847;28;20222;-80
2022/02/12 13:05:36;;;;;;;10.00;4.32;;;7.10;92.30;;;;;;5047143;28;20271;-78